sensor_id;sensor_type;location;lat;lon;timestamp;P1;durP1;ratioP1;P2;durP2;ratioP2
12832;SDS011;6483;51.310;4.462;2022-08-25T00:02:01;5.22;;;4.20;;
12832;SDS011;6483;51.310;4.462;2022-08-25T00:04:34;5.50;;;4.80;;
12832;SDS011;6483;51.310;4.462;2022-08-25T00:07:01;7.25;;;4.55;;
12832;SDS011;6483;51.310;4.462;2022-08-25T00:09:30;5.97;;;5.13;;
12832;SDS011;6483;51.310;4.462;2022-08-25T00:12:03;8.95;;;4.50;;
12832;SDS011;6483;51.310;4.462;2022-08-25T00:14:32;6.10;;;4.63;;
12832;SDS011;6483;51.310;4.462;2022-08-25T00:17:02;5.57;;;5.07;;
12832;SDS011;6483;51.310;4.462;2022-08-25T00:19:29;5.65;;;5.10;;
12832;SDS011;6483;51.310;4.462;2022-08-25T00:21:58;6.18;;;5.30;;
12832;SDS011;6483;51.310;4.462;2022-08-25T00:24:28;5.15;;;4.65;;
12832;SDS011;6483;51.310;4.462;2022-08-25T00:26:56;5.80;;;4.80;;
12832;SDS011;6483;51.310;4.462;2022-08-25T00:29:23;5.82;;;5.22;;
12832;SDS011;6483;51.310;4.462;2022-08-25T00:31:50;7.10;;;4.93;;
12832;SDS011;6483;51.310;4.462;2022-08-25T00:34:18;6.13;;;5.40;;
12832;SDS011;6483;51.310;4.462;2022-08-25T00:36:45;5.90;;;4.80;;
12832;SDS011;6483;51.310;4.462;2022-08-25T00:39:11;5.57;;;5.18;;
12832;SDS011;6483;51.310;4.462;2022-08-25T00:41:39;5.38;;;4.88;;
12832;SDS011;6483;51.310;4.462;2022-08-25T00:44:07;7.10;;;5.47;;
12832;SDS011;6483;51.310;4.462;2022-08-25T00:46:41;6.47;;;5.90;;
12832;SDS011;6483;51.310;4.462;2022-08-25T00:49:30;10.02;;;6.22;;
12832;SDS011;6483;51.310;4.462;2022-08-25T00:52:05;5.30;;;4.80;;
12832;SDS011;6483;51.310;4.462;2022-08-25T00:54:39;6.57;;;5.97;;
12832;SDS011;6483;51.310;4.462;2022-08-25T00:57:10;5.25;;;4.85;;
12832;SDS011;6483;51.310;4.462;2022-08-25T00:59:37;7.10;;;6.40;;
12832;SDS011;6483;51.310;4.462;2022-08-25T01:02:04;5.72;;;5.22;;
12832;SDS011;6483;51.310;4.462;2022-08-25T01:04:31;5.72;;;5.22;;
12832;SDS011;6483;51.310;4.462;2022-08-25T01:07:00;7.25;;;6.18;;
12832;SDS011;6483;51.310;4.462;2022-08-25T01:09:27;5.63;;;5.13;;
12832;SDS011;6483;51.310;4.462;2022-08-25T01:11:55;7.28;;;6.30;;
12832;SDS011;6483;51.310;4.462;2022-08-25T01:14:21;6.63;;;5.80;;
12832;SDS011;6483;51.310;4.462;2022-08-25T01:16:49;7.75;;;6.25;;
12832;SDS011;6483;51.310;4.462;2022-08-25T01:19:15;6.65;;;5.88;;
12832;SDS011;6483;51.310;4.462;2022-08-25T01:21:45;7.00;;;6.28;;
12832;SDS011;6483;51.310;4.462;2022-08-25T01:24:22;7.68;;;5.65;;
12832;SDS011;6483;51.310;4.462;2022-08-25T01:27:09;6.55;;;5.95;;
12832;SDS011;6483;51.310;4.462;2022-08-25T01:29:35;7.05;;;6.03;;
12832;SDS011;6483;51.310;4.462;2022-08-25T01:32:04;7.95;;;6.25;;
12832;SDS011;6483;51.310;4.462;2022-08-25T01:34:34;7.10;;;6.50;;
12832;SDS011;6483;51.310;4.462;2022-08-25T01:37:01;6.32;;;5.72;;
12832;SDS011;6483;51.310;4.462;2022-08-25T01:39:28;7.28;;;6.47;;
12832;SDS011;6483;51.310;4.462;2022-08-25T01:45:24;7.43;;;5.63;;
12832;SDS011;6483;51.310;4.462;2022-08-25T01:47:50;7.43;;;6.72;;
12832;SDS011;6483;51.310;4.462;2022-08-25T01:50:22;8.25;;;7.40;;
12832;SDS011;6483;51.310;4.462;2022-08-25T01:52:55;6.70;;;6.10;;
12832;SDS011;6483;51.310;4.462;2022-08-25T01:55:41;6.97;;;6.40;;
12832;SDS011;6483;51.310;4.462;2022-08-25T01:58:22;7.70;;;6.97;;
12832;SDS011;6483;51.310;4.462;2022-08-25T02:01:13;8.50;;;6.85;;
12832;SDS011;6483;51.310;4.462;2022-08-25T02:03:59;8.60;;;7.43;;
12832;SDS011;6483;51.310;4.462;2022-08-25T02:06:30;8.27;;;7.45;;
12832;SDS011;6483;51.310;4.462;2022-08-25T02:08:58;9.40;;;6.40;;
12832;SDS011;6483;51.310;4.462;2022-08-25T02:11:29;8.60;;;7.70;;
12832;SDS011;6483;51.310;4.462;2022-08-25T02:13:59;8.10;;;7.30;;
12832;SDS011;6483;51.310;4.462;2022-08-25T02:16:27;8.85;;;7.95;;
12832;SDS011;6483;51.310;4.462;2022-08-25T02:19:18;8.20;;;7.40;;
12832;SDS011;6483;51.310;4.462;2022-08-25T02:21:45;8.63;;;7.82;;
12832;SDS011;6483;51.310;4.462;2022-08-25T02:24:14;8.88;;;8.02;;
12832;SDS011;6483;51.310;4.462;2022-08-25T02:26:43;8.57;;;7.78;;
12832;SDS011;6483;51.310;4.462;2022-08-25T02:29:09;9.00;;;8.15;;
12832;SDS011;6483;51.310;4.462;2022-08-25T02:31:39;9.38;;;8.35;;
12832;SDS011;6483;51.310;4.462;2022-08-25T02:34:05;8.77;;;7.97;;
12832;SDS011;6483;51.310;4.462;2022-08-25T02:36:32;9.98;;;8.82;;
12832;SDS011;6483;51.310;4.462;2022-08-25T02:39:21;12.00;;;8.82;;
12832;SDS011;6483;51.310;4.462;2022-08-25T02:42:06;12.88;;;8.65;;
12832;SDS011;6483;51.310;4.462;2022-08-25T02:44:55;8.88;;;8.00;;
12832;SDS011;6483;51.310;4.462;2022-08-25T02:47:21;9.45;;;8.48;;
12832;SDS011;6483;51.310;4.462;2022-08-25T02:49:47;9.60;;;8.75;;
12832;SDS011;6483;51.310;4.462;2022-08-25T02:52:33;9.82;;;8.80;;
12832;SDS011;6483;51.310;4.462;2022-08-25T02:55:00;9.07;;;8.20;;
12832;SDS011;6483;51.310;4.462;2022-08-25T02:57:29;8.98;;;8.02;;
12832;SDS011;6483;51.310;4.462;2022-08-25T02:59:55;10.35;;;9.07;;
12832;SDS011;6483;51.310;4.462;2022-08-25T03:02:22;10.80;;;8.60;;
12832;SDS011;6483;51.310;4.462;2022-08-25T03:04:48;9.82;;;8.82;;
12832;SDS011;6483;51.310;4.462;2022-08-25T03:07:14;9.80;;;8.25;;
12832;SDS011;6483;51.310;4.462;2022-08-25T03:09:41;9.63;;;8.68;;
12832;SDS011;6483;51.310;4.462;2022-08-25T03:12:08;9.18;;;8.38;;
12832;SDS011;6483;51.310;4.462;2022-08-25T03:14:38;9.25;;;8.38;;
12832;SDS011;6483;51.310;4.462;2022-08-25T03:17:05;9.10;;;8.20;;
12832;SDS011;6483;51.310;4.462;2022-08-25T03:19:31;8.48;;;7.65;;
12832;SDS011;6483;51.310;4.462;2022-08-25T03:21:57;9.48;;;8.57;;
12832;SDS011;6483;51.310;4.462;2022-08-25T03:24:37;10.15;;;9.15;;
12832;SDS011;6483;51.310;4.462;2022-08-25T03:27:03;10.30;;;9.27;;
12832;SDS011;6483;51.310;4.462;2022-08-25T03:29:33;10.20;;;9.20;;
12832;SDS011;6483;51.310;4.462;2022-08-25T03:32:01;10.02;;;9.07;;
12832;SDS011;6483;51.310;4.462;2022-08-25T03:34:28;10.40;;;9.35;;
12832;SDS011;6483;51.310;4.462;2022-08-25T03:36:55;10.68;;;9.68;;
12832;SDS011;6483;51.310;4.462;2022-08-25T03:39:24;10.85;;;9.52;;
12832;SDS011;6483;51.310;4.462;2022-08-25T03:41:51;12.15;;;9.45;;
12832;SDS011;6483;51.310;4.462;2022-08-25T03:44:17;11.40;;;10.25;;
12832;SDS011;6483;51.310;4.462;2022-08-25T03:46:47;11.10;;;10.00;;
12832;SDS011;6483;51.310;4.462;2022-08-25T03:49:19;11.73;;;10.18;;
12832;SDS011;6483;51.310;4.462;2022-08-25T03:51:47;11.82;;;9.90;;
12832;SDS011;6483;51.310;4.462;2022-08-25T03:54:16;11.02;;;9.93;;
12832;SDS011;6483;51.310;4.462;2022-08-25T03:56:47;10.18;;;9.18;;
12832;SDS011;6483;51.310;4.462;2022-08-25T03:59:13;9.95;;;9.05;;
12832;SDS011;6483;51.310;4.462;2022-08-25T04:01:40;9.93;;;8.98;;
12832;SDS011;6483;51.310;4.462;2022-08-25T04:04:08;9.18;;;8.38;;
12832;SDS011;6483;51.310;4.462;2022-08-25T04:06:34;10.65;;;9.65;;
12832;SDS011;6483;51.310;4.462;2022-08-25T04:09:00;11.18;;;10.18;;
12832;SDS011;6483;51.310;4.462;2022-08-25T04:11:44;11.50;;;10.30;;
12832;SDS011;6483;51.310;4.462;2022-08-25T04:14:11;12.75;;;11.55;;
12832;SDS011;6483;51.310;4.462;2022-08-25T04:16:37;13.90;;;12.40;;
12832;SDS011;6483;51.310;4.462;2022-08-25T04:19:06;12.55;;;11.32;;
12832;SDS011;6483;51.310;4.462;2022-08-25T04:21:34;13.32;;;11.93;;
12832;SDS011;6483;51.310;4.462;2022-08-25T04:24:01;12.45;;;10.98;;
12832;SDS011;6483;51.310;4.462;2022-08-25T04:26:31;11.77;;;10.68;;
12832;SDS011;6483;51.310;4.462;2022-08-25T04:28:59;11.85;;;10.75;;
12832;SDS011;6483;51.310;4.462;2022-08-25T04:31:30;14.00;;;10.90;;
12832;SDS011;6483;51.310;4.462;2022-08-25T04:34:00;10.85;;;9.85;;
12832;SDS011;6483;51.310;4.462;2022-08-25T04:36:30;10.85;;;9.75;;
12832;SDS011;6483;51.310;4.462;2022-08-25T04:38:56;11.10;;;9.85;;
12832;SDS011;6483;51.310;4.462;2022-08-25T04:41:23;11.45;;;10.35;;
12832;SDS011;6483;51.310;4.462;2022-08-25T04:43:56;14.93;;;10.75;;
12832;SDS011;6483;51.310;4.462;2022-08-25T04:46:24;11.73;;;10.55;;
12832;SDS011;6483;51.310;4.462;2022-08-25T04:48:52;10.57;;;9.48;;
12832;SDS011;6483;51.310;4.462;2022-08-25T04:51:24;10.60;;;9.60;;
12832;SDS011;6483;51.310;4.462;2022-08-25T04:53:53;11.50;;;10.40;;
12832;SDS011;6483;51.310;4.462;2022-08-25T04:56:28;10.35;;;9.30;;
12832;SDS011;6483;51.310;4.462;2022-08-25T04:59:00;11.52;;;10.27;;
12832;SDS011;6483;51.310;4.462;2022-08-25T05:01:31;13.65;;;9.93;;
12832;SDS011;6483;51.310;4.462;2022-08-25T05:04:01;12.35;;;10.45;;
12832;SDS011;6483;51.310;4.462;2022-08-25T05:06:30;12.07;;;10.75;;
12832;SDS011;6483;51.310;4.462;2022-08-25T05:09:00;14.07;;;10.32;;
12832;SDS011;6483;51.310;4.462;2022-08-25T05:11:32;12.55;;;10.65;;
12832;SDS011;6483;51.310;4.462;2022-08-25T05:16:37;11.00;;;9.95;;
12832;SDS011;6483;51.310;4.462;2022-08-25T05:19:03;10.43;;;9.40;;
12832;SDS011;6483;51.310;4.462;2022-08-25T05:21:28;11.35;;;9.55;;
12832;SDS011;6483;51.310;4.462;2022-08-25T05:23:55;12.32;;;9.55;;
12832;SDS011;6483;51.310;4.462;2022-08-25T05:26:23;12.55;;;10.00;;
12832;SDS011;6483;51.310;4.462;2022-08-25T05:28:50;11.80;;;9.82;;
12832;SDS011;6483;51.310;4.462;2022-08-25T05:31:20;10.15;;;9.15;;
12832;SDS011;6483;51.310;4.462;2022-08-25T05:33:50;9.95;;;8.95;;
12832;SDS011;6483;51.310;4.462;2022-08-25T05:36:20;10.27;;;9.10;;
12832;SDS011;6483;51.310;4.462;2022-08-25T05:38:47;9.57;;;8.70;;
12832;SDS011;6483;51.310;4.462;2022-08-25T05:41:14;10.48;;;9.07;;
12832;SDS011;6483;51.310;4.462;2022-08-25T05:43:46;9.70;;;8.85;;
12832;SDS011;6483;51.310;4.462;2022-08-25T05:46:13;9.77;;;8.88;;
12832;SDS011;6483;51.310;4.462;2022-08-25T05:48:40;9.60;;;8.60;;
12832;SDS011;6483;51.310;4.462;2022-08-25T05:51:07;9.00;;;8.20;;
12832;SDS011;6483;51.310;4.462;2022-08-25T05:53:34;9.88;;;8.40;;
12832;SDS011;6483;51.310;4.462;2022-08-25T05:56:01;10.20;;;7.97;;
12832;SDS011;6483;51.310;4.462;2022-08-25T05:58:28;9.40;;;8.00;;
12832;SDS011;6483;51.310;4.462;2022-08-25T06:00:56;8.75;;;8.00;;
12832;SDS011;6483;51.310;4.462;2022-08-25T06:03:43;9.10;;;8.23;;
12832;SDS011;6483;51.310;4.462;2022-08-25T06:06:08;8.95;;;8.00;;
12832;SDS011;6483;51.310;4.462;2022-08-25T06:08:37;8.73;;;7.90;;
12832;SDS011;6483;51.310;4.462;2022-08-25T06:11:04;8.85;;;7.50;;
12832;SDS011;6483;51.310;4.462;2022-08-25T06:13:33;8.25;;;7.45;;
12832;SDS011;6483;51.310;4.462;2022-08-25T06:15:59;8.85;;;7.40;;
12832;SDS011;6483;51.310;4.462;2022-08-25T06:18:25;8.10;;;7.30;;
12832;SDS011;6483;51.310;4.462;2022-08-25T06:20:51;7.88;;;7.13;;
12832;SDS011;6483;51.310;4.462;2022-08-25T06:23:17;9.07;;;6.85;;
12832;SDS011;6483;51.310;4.462;2022-08-25T06:25:50;7.22;;;6.63;;
12832;SDS011;6483;51.310;4.462;2022-08-25T06:28:17;7.18;;;6.47;;
12832;SDS011;6483;51.310;4.462;2022-08-25T06:30:44;9.57;;;7.20;;
12832;SDS011;6483;51.310;4.462;2022-08-25T06:33:16;7.78;;;6.10;;
12832;SDS011;6483;51.310;4.462;2022-08-25T06:35:41;6.18;;;5.50;;
12832;SDS011;6483;51.310;4.462;2022-08-25T06:38:09;7.50;;;5.50;;
12832;SDS011;6483;51.310;4.462;2022-08-25T06:40:35;6.70;;;4.97;;
12832;SDS011;6483;51.310;4.462;2022-08-25T06:43:01;6.63;;;4.55;;
12832;SDS011;6483;51.310;4.462;2022-08-25T06:45:30;6.47;;;4.60;;
12832;SDS011;6483;51.310;4.462;2022-08-25T06:47:57;4.40;;;4.00;;
12832;SDS011;6483;51.310;4.462;2022-08-25T06:50:26;4.45;;;3.95;;
12832;SDS011;6483;51.310;4.462;2022-08-25T06:52:52;4.68;;;3.55;;
12832;SDS011;6483;51.310;4.462;2022-08-25T06:55:19;5.25;;;3.67;;
12832;SDS011;6483;51.310;4.462;2022-08-25T06:57:45;4.93;;;3.60;;
12832;SDS011;6483;51.310;4.462;2022-08-25T07:00:15;5.38;;;3.72;;
12832;SDS011;6483;51.310;4.462;2022-08-25T07:02:41;4.32;;;3.55;;
12832;SDS011;6483;51.310;4.462;2022-08-25T07:05:07;4.55;;;3.50;;
12832;SDS011;6483;51.310;4.462;2022-08-25T07:07:32;4.85;;;3.17;;
12832;SDS011;6483;51.310;4.462;2022-08-25T07:09:58;3.38;;;2.60;;
12832;SDS011;6483;51.310;4.462;2022-08-25T07:12:24;5.72;;;3.83;;
12832;SDS011;6483;51.310;4.462;2022-08-25T07:14:49;7.10;;;3.40;;
12832;SDS011;6483;51.310;4.462;2022-08-25T07:17:15;6.13;;;2.80;;
12832;SDS011;6483;51.310;4.462;2022-08-25T07:19:41;4.43;;;2.50;;
12832;SDS011;6483;51.310;4.462;2022-08-25T07:22:07;3.95;;;2.83;;
12832;SDS011;6483;51.310;4.462;2022-08-25T07:24:33;4.65;;;2.75;;
12832;SDS011;6483;51.310;4.462;2022-08-25T07:26:58;7.15;;;3.25;;
12832;SDS011;6483;51.310;4.462;2022-08-25T07:29:26;3.38;;;2.85;;
12832;SDS011;6483;51.310;4.462;2022-08-25T07:31:52;7.40;;;3.10;;
12832;SDS011;6483;51.310;4.462;2022-08-25T07:34:18;6.75;;;3.10;;
12832;SDS011;6483;51.310;4.462;2022-08-25T07:37:03;4.05;;;2.45;;
12832;SDS011;6483;51.310;4.462;2022-08-25T07:39:29;7.18;;;2.75;;
12832;SDS011;6483;51.310;4.462;2022-08-25T07:41:56;8.00;;;2.95;;
12832;SDS011;6483;51.310;4.462;2022-08-25T07:44:22;5.18;;;2.70;;
12832;SDS011;6483;51.310;4.462;2022-08-25T07:46:49;3.08;;;2.70;;
12832;SDS011;6483;51.310;4.462;2022-08-25T07:49:15;5.72;;;2.97;;
12832;SDS011;6483;51.310;4.462;2022-08-25T07:51:41;4.63;;;2.47;;
12832;SDS011;6483;51.310;4.462;2022-08-25T07:54:11;4.43;;;2.63;;
12832;SDS011;6483;51.310;4.462;2022-08-25T07:56:37;2.95;;;2.50;;
12832;SDS011;6483;51.310;4.462;2022-08-25T07:59:06;4.30;;;2.60;;
12832;SDS011;6483;51.310;4.462;2022-08-25T08:01:38;7.05;;;2.92;;
12832;SDS011;6483;51.310;4.462;2022-08-25T08:04:04;4.05;;;2.78;;
12832;SDS011;6483;51.310;4.462;2022-08-25T08:06:29;4.32;;;2.40;;
12832;SDS011;6483;51.310;4.462;2022-08-25T08:08:55;5.93;;;2.65;;
12832;SDS011;6483;51.310;4.462;2022-08-25T08:13:55;4.85;;;2.60;;
12832;SDS011;6483;51.310;4.462;2022-08-25T08:16:24;3.47;;;2.50;;
12832;SDS011;6483;51.310;4.462;2022-08-25T08:18:51;4.82;;;2.53;;
12832;SDS011;6483;51.310;4.462;2022-08-25T08:21:24;5.97;;;3.00;;
12832;SDS011;6483;51.310;4.462;2022-08-25T08:23:54;6.57;;;2.45;;
12832;SDS011;6483;51.310;4.462;2022-08-25T08:26:20;3.90;;;2.63;;
12832;SDS011;6483;51.310;4.462;2022-08-25T08:28:48;6.55;;;2.20;;
12832;SDS011;6483;51.310;4.462;2022-08-25T08:31:16;6.05;;;2.75;;
12832;SDS011;6483;51.310;4.462;2022-08-25T08:33:46;7.15;;;2.80;;
12832;SDS011;6483;51.310;4.462;2022-08-25T08:36:14;7.40;;;3.05;;
12832;SDS011;6483;51.310;4.462;2022-08-25T08:38:40;6.22;;;2.47;;
12832;SDS011;6483;51.310;4.462;2022-08-25T08:50:05;5.22;;;2.15;;
12832;SDS011;6483;51.310;4.462;2022-08-25T08:55:48;3.80;;;2.40;;
12832;SDS011;6483;51.310;4.462;2022-08-25T09:07:34;4.95;;;2.33;;
12832;SDS011;6483;51.310;4.462;2022-08-25T09:10:05;2.58;;;2.15;;
12832;SDS011;6483;51.310;4.462;2022-08-25T09:26:39;4.13;;;2.35;;
12832;SDS011;6483;51.310;4.462;2022-08-25T09:29:13;7.32;;;2.20;;
12832;SDS011;6483;51.310;4.462;2022-08-25T09:31:48;6.65;;;2.38;;
12832;SDS011;6483;51.310;4.462;2022-08-25T09:34:19;6.00;;;2.08;;
12832;SDS011;6483;51.310;4.462;2022-08-25T09:36:47;6.82;;;2.65;;
12832;SDS011;6483;51.310;4.462;2022-08-25T09:39:34;3.83;;;2.50;;
12832;SDS011;6483;51.310;4.462;2022-08-25T09:42:00;3.40;;;1.95;;
12832;SDS011;6483;51.310;4.462;2022-08-25T09:44:39;4.32;;;2.13;;
12832;SDS011;6483;51.310;4.462;2022-08-25T09:47:21;3.00;;;1.95;;
12832;SDS011;6483;51.310;4.462;2022-08-25T09:49:56;4.22;;;2.00;;
12832;SDS011;6483;51.310;4.462;2022-08-25T09:52:36;3.67;;;1.73;;
12832;SDS011;6483;51.310;4.462;2022-08-25T09:57:48;3.50;;;1.60;;
12832;SDS011;6483;51.310;4.462;2022-08-25T10:00:19;4.03;;;2.00;;
12832;SDS011;6483;51.310;4.462;2022-08-25T10:05:31;2.20;;;1.60;;
12832;SDS011;6483;51.310;4.462;2022-08-25T10:08:00;5.72;;;2.05;;
12832;SDS011;6483;51.310;4.462;2022-08-25T10:10:34;4.80;;;1.90;;
12832;SDS011;6483;51.310;4.462;2022-08-25T10:13:03;2.85;;;1.80;;
12832;SDS011;6483;51.310;4.462;2022-08-25T10:15:39;6.25;;;2.22;;
12832;SDS011;6483;51.310;4.462;2022-08-25T10:23:44;3.92;;;1.73;;
12832;SDS011;6483;51.310;4.462;2022-08-25T10:31:41;6.03;;;1.60;;
12832;SDS011;6483;51.310;4.462;2022-08-25T10:37:19;2.10;;;1.60;;
12832;SDS011;6483;51.310;4.462;2022-08-25T10:42:53;3.25;;;1.90;;
12832;SDS011;6483;51.310;4.462;2022-08-25T10:45:29;2.75;;;1.60;;
12832;SDS011;6483;51.310;4.462;2022-08-25T10:48:17;3.97;;;1.42;;
12832;SDS011;6483;51.310;4.462;2022-08-25T10:50:49;2.83;;;1.80;;
12832;SDS011;6483;51.310;4.462;2022-08-25T11:03:44;2.67;;;1.67;;
12832;SDS011;6483;51.310;4.462;2022-08-25T11:06:13;3.50;;;1.90;;
12832;SDS011;6483;51.310;4.462;2022-08-25T11:08:50;3.08;;;1.63;;
12832;SDS011;6483;51.310;4.462;2022-08-25T11:11:28;2.10;;;1.60;;
12832;SDS011;6483;51.310;4.462;2022-08-25T11:16:38;4.97;;;1.70;;
12832;SDS011;6483;51.310;4.462;2022-08-25T11:19:31;4.05;;;1.80;;
12832;SDS011;6483;51.310;4.462;2022-08-25T11:22:11;3.92;;;1.50;;
12832;SDS011;6483;51.310;4.462;2022-08-25T11:27:19;5.75;;;1.60;;
12832;SDS011;6483;51.310;4.462;2022-08-25T11:29:58;4.53;;;1.80;;
12832;SDS011;6483;51.310;4.462;2022-08-25T11:32:36;2.33;;;1.40;;
12832;SDS011;6483;51.310;4.462;2022-08-25T11:35:04;5.97;;;1.70;;
12832;SDS011;6483;51.310;4.462;2022-08-25T11:37:31;4.95;;;1.92;;
12832;SDS011;6483;51.310;4.462;2022-08-25T11:42:39;5.53;;;1.55;;
12832;SDS011;6483;51.310;4.462;2022-08-25T11:48:07;2.22;;;1.50;;
12832;SDS011;6483;51.310;4.462;2022-08-25T11:53:34;1.70;;;1.60;;
12832;SDS011;6483;51.310;4.462;2022-08-25T11:56:05;2.17;;;1.42;;
12832;SDS011;6483;51.310;4.462;2022-08-25T11:58:48;2.45;;;1.55;;
12832;SDS011;6483;51.310;4.462;2022-08-25T12:09:26;3.47;;;1.50;;
12832;SDS011;6483;51.310;4.462;2022-08-25T12:11:53;1.90;;;1.50;;
12832;SDS011;6483;51.310;4.462;2022-08-25T12:30:27;3.10;;;1.42;;
12832;SDS011;6483;51.310;4.462;2022-08-25T12:35:29;1.92;;;1.40;;
12832;SDS011;6483;51.310;4.462;2022-08-25T12:38:00;2.47;;;1.60;;
12832;SDS011;6483;51.310;4.462;2022-08-25T12:40:31;3.15;;;1.60;;
12832;SDS011;6483;51.310;4.462;2022-08-25T12:43:03;2.75;;;1.50;;
12832;SDS011;6483;51.310;4.462;2022-08-25T12:45:37;2.42;;;1.60;;
12832;SDS011;6483;51.310;4.462;2022-08-25T12:50:48;4.18;;;1.35;;
12832;SDS011;6483;51.310;4.462;2022-08-25T12:56:30;2.60;;;1.35;;
12832;SDS011;6483;51.310;4.462;2022-08-25T13:11:43;3.40;;;1.40;;
12832;SDS011;6483;51.310;4.462;2022-08-25T13:14:22;2.00;;;1.50;;
12832;SDS011;6483;51.310;4.462;2022-08-25T13:16:54;5.25;;;1.55;;
12832;SDS011;6483;51.310;4.462;2022-08-25T13:19:23;2.85;;;1.27;;
12832;SDS011;6483;51.310;4.462;2022-08-25T13:21:49;4.78;;;1.55;;
12832;SDS011;6483;51.310;4.462;2022-08-25T13:24:35;1.35;;;1.25;;
12832;SDS011;6483;51.310;4.462;2022-08-25T13:27:05;7.07;;;1.85;;
12832;SDS011;6483;51.310;4.462;2022-08-25T13:29:48;10.98;;;2.50;;
12832;SDS011;6483;51.310;4.462;2022-08-25T13:32:24;7.25;;;2.30;;
12832;SDS011;6483;51.310;4.462;2022-08-25T13:34:50;8.85;;;2.90;;
12832;SDS011;6483;51.310;4.462;2022-08-25T13:37:18;9.68;;;2.58;;
12832;SDS011;6483;51.310;4.462;2022-08-25T13:42:41;5.55;;;2.67;;
12832;SDS011;6483;51.310;4.462;2022-08-25T13:45:21;7.45;;;2.88;;
12832;SDS011;6483;51.310;4.462;2022-08-25T13:47:51;8.05;;;3.00;;
12832;SDS011;6483;51.310;4.462;2022-08-25T13:50:27;6.55;;;2.75;;
12832;SDS011;6483;51.310;4.462;2022-08-25T13:52:58;5.03;;;3.10;;
12832;SDS011;6483;51.310;4.462;2022-08-25T13:55:38;6.57;;;3.38;;
12832;SDS011;6483;51.310;4.462;2022-08-25T13:58:12;6.82;;;3.47;;
12832;SDS011;6483;51.310;4.462;2022-08-25T14:00:44;7.38;;;3.63;;
12832;SDS011;6483;51.310;4.462;2022-08-25T14:03:33;6.18;;;2.88;;
12832;SDS011;6483;51.310;4.462;2022-08-25T14:06:03;7.53;;;3.58;;
12832;SDS011;6483;51.310;4.462;2022-08-25T14:08:34;6.72;;;2.83;;
12832;SDS011;6483;51.310;4.462;2022-08-25T14:11:12;6.70;;;3.10;;
12832;SDS011;6483;51.310;4.462;2022-08-25T14:13:39;6.70;;;2.67;;
12832;SDS011;6483;51.310;4.462;2022-08-25T14:16:27;5.15;;;2.63;;
12832;SDS011;6483;51.310;4.462;2022-08-25T14:18:55;9.93;;;3.40;;
12832;SDS011;6483;51.310;4.462;2022-08-25T14:21:25;8.32;;;3.25;;
12832;SDS011;6483;51.310;4.462;2022-08-25T14:23:52;7.10;;;3.47;;
12832;SDS011;6483;51.310;4.462;2022-08-25T14:26:19;5.10;;;3.53;;
12832;SDS011;6483;51.310;4.462;2022-08-25T14:28:45;7.20;;;3.38;;
12832;SDS011;6483;51.310;4.462;2022-08-25T14:31:12;4.07;;;3.00;;
12832;SDS011;6483;51.310;4.462;2022-08-25T14:33:43;2.92;;;2.65;;
12832;SDS011;6483;51.310;4.462;2022-08-25T14:36:12;8.35;;;3.20;;
12832;SDS011;6483;51.310;4.462;2022-08-25T14:38:40;4.47;;;3.13;;
12832;SDS011;6483;51.310;4.462;2022-08-25T14:41:06;4.97;;;3.40;;
12832;SDS011;6483;51.310;4.462;2022-08-25T14:43:36;6.43;;;3.20;;
12832;SDS011;6483;51.310;4.462;2022-08-25T14:46:05;6.97;;;3.28;;
12832;SDS011;6483;51.310;4.462;2022-08-25T14:48:36;4.78;;;3.22;;
12832;SDS011;6483;51.310;4.462;2022-08-25T14:51:07;5.53;;;3.22;;
12832;SDS011;6483;51.310;4.462;2022-08-25T14:53:33;4.88;;;3.33;;
12832;SDS011;6483;51.310;4.462;2022-08-25T14:55:59;5.53;;;3.30;;
12832;SDS011;6483;51.310;4.462;2022-08-25T14:58:25;8.15;;;3.78;;
12832;SDS011;6483;51.310;4.462;2022-08-25T15:00:52;4.70;;;4.22;;
12832;SDS011;6483;51.310;4.462;2022-08-25T15:03:32;7.25;;;5.28;;
12832;SDS011;6483;51.310;4.462;2022-08-25T15:05:59;4.47;;;3.97;;
12832;SDS011;6483;51.310;4.462;2022-08-25T15:08:25;5.15;;;3.75;;
12832;SDS011;6483;51.310;4.462;2022-08-25T15:11:10;11.55;;;5.35;;
12832;SDS011;6483;51.310;4.462;2022-08-25T15:13:38;18.10;;;11.38;;
12832;SDS011;6483;51.310;4.462;2022-08-25T15:16:05;15.88;;;11.77;;
12832;SDS011;6483;51.310;4.462;2022-08-25T15:18:31;16.25;;;14.07;;
12832;SDS011;6483;51.310;4.462;2022-08-25T15:20:57;15.82;;;12.93;;
12832;SDS011;6483;51.310;4.462;2022-08-25T15:23:24;16.73;;;13.23;;
12832;SDS011;6483;51.310;4.462;2022-08-25T15:25:52;18.30;;;15.00;;
12832;SDS011;6483;51.310;4.462;2022-08-25T15:28:22;18.73;;;16.58;;
12832;SDS011;6483;51.310;4.462;2022-08-25T15:30:49;15.88;;;13.85;;
12832;SDS011;6483;51.310;4.462;2022-08-25T15:33:15;18.60;;;13.15;;
12832;SDS011;6483;51.310;4.462;2022-08-25T15:35:41;17.60;;;15.73;;
12832;SDS011;6483;51.310;4.462;2022-08-25T15:38:08;17.38;;;15.60;;
12832;SDS011;6483;51.310;4.462;2022-08-25T15:40:34;18.63;;;16.23;;
12832;SDS011;6483;51.310;4.462;2022-08-25T15:43:02;19.85;;;17.60;;
12832;SDS011;6483;51.310;4.462;2022-08-25T15:45:28;25.92;;;19.38;;
12832;SDS011;6483;51.310;4.462;2022-08-25T15:47:55;22.67;;;18.15;;
12832;SDS011;6483;51.310;4.462;2022-08-25T15:50:21;20.73;;;17.48;;
12832;SDS011;6483;51.310;4.462;2022-08-25T15:52:47;21.80;;;16.65;;
12832;SDS011;6483;51.310;4.462;2022-08-25T15:55:14;19.90;;;16.33;;
12832;SDS011;6483;51.310;4.462;2022-08-25T15:57:41;18.73;;;14.63;;
12832;SDS011;6483;51.310;4.462;2022-08-25T16:00:11;18.90;;;15.10;;
12832;SDS011;6483;51.310;4.462;2022-08-25T16:02:38;25.00;;;17.67;;
12832;SDS011;6483;51.310;4.462;2022-08-25T16:05:05;26.23;;;16.67;;
12832;SDS011;6483;51.310;4.462;2022-08-25T16:07:36;21.77;;;15.30;;
12832;SDS011;6483;51.310;4.462;2022-08-25T16:10:04;17.67;;;14.40;;
12832;SDS011;6483;51.310;4.462;2022-08-25T16:12:33;15.02;;;13.40;;
12832;SDS011;6483;51.310;4.462;2022-08-25T16:15:01;16.80;;;15.07;;
12832;SDS011;6483;51.310;4.462;2022-08-25T16:17:27;21.55;;;15.23;;
12832;SDS011;6483;51.310;4.462;2022-08-25T16:19:53;23.98;;;15.50;;
12832;SDS011;6483;51.310;4.462;2022-08-25T16:22:19;18.33;;;13.70;;
12832;SDS011;6483;51.310;4.462;2022-08-25T16:24:45;17.23;;;13.10;;
12832;SDS011;6483;51.310;4.462;2022-08-25T16:27:12;18.00;;;13.88;;
12832;SDS011;6483;51.310;4.462;2022-08-25T16:29:39;16.77;;;11.27;;
12832;SDS011;6483;51.310;4.462;2022-08-25T16:32:09;17.98;;;13.00;;
12832;SDS011;6483;51.310;4.462;2022-08-25T16:34:38;20.27;;;12.90;;
12832;SDS011;6483;51.310;4.462;2022-08-25T16:37:04;15.93;;;12.43;;
12832;SDS011;6483;51.310;4.462;2022-08-25T16:39:31;17.30;;;12.38;;
12832;SDS011;6483;51.310;4.462;2022-08-25T16:41:57;12.73;;;11.43;;
12832;SDS011;6483;51.310;4.462;2022-08-25T16:44:23;12.10;;;10.68;;
12832;SDS011;6483;51.310;4.462;2022-08-25T16:46:50;18.52;;;11.63;;
12832;SDS011;6483;51.310;4.462;2022-08-25T16:49:19;15.70;;;9.82;;
12832;SDS011;6483;51.310;4.462;2022-08-25T16:51:45;14.35;;;10.75;;
12832;SDS011;6483;51.310;4.462;2022-08-25T16:54:11;13.02;;;9.90;;
12832;SDS011;6483;51.310;4.462;2022-08-25T16:56:55;17.50;;;9.93;;
12832;SDS011;6483;51.310;4.462;2022-08-25T16:59:22;11.85;;;10.40;;
12832;SDS011;6483;51.310;4.462;2022-08-25T17:01:49;14.90;;;10.65;;
12832;SDS011;6483;51.310;4.462;2022-08-25T17:04:15;13.40;;;10.75;;
12832;SDS011;6483;51.310;4.462;2022-08-25T17:06:44;18.48;;;13.30;;
12832;SDS011;6483;51.310;4.462;2022-08-25T17:09:11;16.63;;;13.63;;
12832;SDS011;6483;51.310;4.462;2022-08-25T17:11:40;20.00;;;13.95;;
12832;SDS011;6483;51.310;4.462;2022-08-25T17:14:09;18.38;;;12.80;;
12832;SDS011;6483;51.310;4.462;2022-08-25T17:16:35;16.75;;;13.70;;
12832;SDS011;6483;51.310;4.462;2022-08-25T17:19:03;16.63;;;14.15;;
12832;SDS011;6483;51.310;4.462;2022-08-25T17:21:31;17.88;;;13.88;;
12832;SDS011;6483;51.310;4.462;2022-08-25T17:23:57;21.92;;;15.40;;
12832;SDS011;6483;51.310;4.462;2022-08-25T17:26:24;18.40;;;15.05;;
12832;SDS011;6483;51.310;4.462;2022-08-25T17:28:52;22.45;;;17.58;;
12832;SDS011;6483;51.310;4.462;2022-08-25T17:31:18;21.77;;;16.42;;